sensor_id;sensor_type;location;lat;lon;timestamp;temperature;humidity
10046;DHT22;5063;50.878;4.742;2023-12-28T00:00:42;11.10;99.90
10046;DHT22;5063;50.878;4.742;2023-12-28T00:03:07;11.10;99.90
10046;DHT22;5063;50.878;4.742;2023-12-28T00:05:33;11.10;99.90
10046;DHT22;5063;50.878;4.742;2023-12-28T00:07:59;11.10;99.90
10046;DHT22;5063;50.878;4.742;2023-12-28T00:10:26;11.10;99.90
10046;DHT22;5063;50.878;4.742;2023-12-28T00:12:52;11.00;99.90
10046;DHT22;5063;50.878;4.742;2023-12-28T00:15:17;11.00;99.90
10046;DHT22;5063;50.878;4.742;2023-12-28T00:17:43;11.00;99.90
10046;DHT22;5063;50.878;4.742;2023-12-28T00:20:09;11.00;99.90
10046;DHT22;5063;50.878;4.742;2023-12-28T00:22:35;10.90;99.90
10046;DHT22;5063;50.878;4.742;2023-12-28T00:25:03;10.80;99.90
10046;DHT22;5063;50.878;4.742;2023-12-28T00:27:29;10.80;99.90
10046;DHT22;5063;50.878;4.742;2023-12-28T00:29:55;10.90;99.90
10046;DHT22;5063;50.878;4.742;2023-12-28T00:32:21;10.90;99.90
10046;DHT22;5063;50.878;4.742;2023-12-28T00:34:46;11.00;99.90
10046;DHT22;5063;50.878;4.742;2023-12-28T00:37:12;11.00;99.90
10046;DHT22;5063;50.878;4.742;2023-12-28T00:39:38;11.00;99.90
10046;DHT22;5063;50.878;4.742;2023-12-28T00:42:04;11.00;99.90
10046;DHT22;5063;50.878;4.742;2023-12-28T00:44:30;10.90;99.90
10046;DHT22;5063;50.878;4.742;2023-12-28T00:46:56;10.80;99.90
10046;DHT22;5063;50.878;4.742;2023-12-28T00:49:21;10.80;99.90
10046;DHT22;5063;50.878;4.742;2023-12-28T00:51:47;10.80;99.90
10046;DHT22;5063;50.878;4.742;2023-12-28T00:54:13;10.90;99.90
10046;DHT22;5063;50.878;4.742;2023-12-28T00:56:38;10.90;99.90
10046;DHT22;5063;50.878;4.742;2023-12-28T00:59:04;10.90;99.90
10046;DHT22;5063;50.878;4.742;2023-12-28T01:01:30;10.90;99.90
10046;DHT22;5063;50.878;4.742;2023-12-28T01:03:58;10.90;99.90
10046;DHT22;5063;50.878;4.742;2023-12-28T01:06:24;10.90;99.90
10046;DHT22;5063;50.878;4.742;2023-12-28T01:08:54;11.10;99.90
10046;DHT22;5063;50.878;4.742;2023-12-28T01:11:20;10.90;99.90
10046;DHT22;5063;50.878;4.742;2023-12-28T01:13:46;10.80;99.90
10046;DHT22;5063;50.878;4.742;2023-12-28T01:16:15;10.80;99.90
10046;DHT22;5063;50.878;4.742;2023-12-28T01:18:40;10.80;99.90
10046;DHT22;5063;50.878;4.742;2023-12-28T01:21:06;10.80;99.90
10046;DHT22;5063;50.878;4.742;2023-12-28T01:23:32;10.80;99.90
10046;DHT22;5063;50.878;4.742;2023-12-28T01:25:59;10.80;99.90
10046;DHT22;5063;50.878;4.742;2023-12-28T01:28:25;10.70;99.90
10046;DHT22;5063;50.878;4.742;2023-12-28T01:30:51;10.70;99.90
10046;DHT22;5063;50.878;4.742;2023-12-28T01:33:16;10.60;99.90
10046;DHT22;5063;50.878;4.742;2023-12-28T01:35:42;10.60;99.90
10046;DHT22;5063;50.878;4.742;2023-12-28T01:38:08;10.60;99.90
10046;DHT22;5063;50.878;4.742;2023-12-28T01:40:33;10.50;99.90
10046;DHT22;5063;50.878;4.742;2023-12-28T01:42:59;10.50;99.90
10046;DHT22;5063;50.878;4.742;2023-12-28T01:45:25;10.40;99.90
10046;DHT22;5063;50.878;4.742;2023-12-28T01:47:53;10.40;99.90
10046;DHT22;5063;50.878;4.742;2023-12-28T01:50:21;10.40;99.90
10046;DHT22;5063;50.878;4.742;2023-12-28T01:52:47;10.40;99.90
10046;DHT22;5063;50.878;4.742;2023-12-28T01:55:14;10.30;99.90
10046;DHT22;5063;50.878;4.742;2023-12-28T01:57:41;10.30;99.90
10046;DHT22;5063;50.878;4.742;2023-12-28T02:00:07;10.30;99.90
10046;DHT22;5063;50.878;4.742;2023-12-28T02:02:33;10.30;99.90
10046;DHT22;5063;50.878;4.742;2023-12-28T02:05:00;10.20;99.90
10046;DHT22;5063;50.878;4.742;2023-12-28T02:07:26;10.20;99.90
10046;DHT22;5063;50.878;4.742;2023-12-28T02:09:52;10.20;99.90
10046;DHT22;5063;50.878;4.742;2023-12-28T02:12:18;10.20;99.90
10046;DHT22;5063;50.878;4.742;2023-12-28T02:14:44;10.20;99.90
10046;DHT22;5063;50.878;4.742;2023-12-28T02:22:14;10.10;99.90
10046;DHT22;5063;50.878;4.742;2023-12-28T02:25:08;10.30;99.90
10046;DHT22;5063;50.878;4.742;2023-12-28T02:27:44;10.10;99.90
10046;DHT22;5063;50.878;4.742;2023-12-28T02:30:12;10.10;99.90
10046;DHT22;5063;50.878;4.742;2023-12-28T02:32:52;10.00;99.90
10046;DHT22;5063;50.878;4.742;2023-12-28T02:35:29;10.00;99.90
10046;DHT22;5063;50.878;4.742;2023-12-28T02:37:58;10.00;99.90
10046;DHT22;5063;50.878;4.742;2023-12-28T02:40:24;10.10;99.90
10046;DHT22;5063;50.878;4.742;2023-12-28T02:42:51;10.10;99.90
10046;DHT22;5063;50.878;4.742;2023-12-28T02:45:18;10.10;99.90
10046;DHT22;5063;50.878;4.742;2023-12-28T02:47:44;10.10;99.90
10046;DHT22;5063;50.878;4.742;2023-12-28T02:50:09;10.10;99.90
10046;DHT22;5063;50.878;4.742;2023-12-28T02:52:35;10.10;99.90
10046;DHT22;5063;50.878;4.742;2023-12-28T02:55:01;10.10;99.90
10046;DHT22;5063;50.878;4.742;2023-12-28T02:57:26;10.10;99.90
10046;DHT22;5063;50.878;4.742;2023-12-28T02:59:52;10.10;99.90
10046;DHT22;5063;50.878;4.742;2023-12-28T03:02:18;10.10;99.90
10046;DHT22;5063;50.878;4.742;2023-12-28T03:04:44;10.10;99.90
10046;DHT22;5063;50.878;4.742;2023-12-28T03:07:09;10.20;99.90
10046;DHT22;5063;50.878;4.742;2023-12-28T03:09:35;10.20;99.90
10046;DHT22;5063;50.878;4.742;2023-12-28T03:12:04;10.20;99.90
10046;DHT22;5063;50.878;4.742;2023-12-28T03:14:30;10.20;99.90
10046;DHT22;5063;50.878;4.742;2023-12-28T03:16:55;10.20;99.90
10046;DHT22;5063;50.878;4.742;2023-12-28T03:19:21;10.20;99.90
10046;DHT22;5063;50.878;4.742;2023-12-28T03:21:47;10.20;99.90
10046;DHT22;5063;50.878;4.742;2023-12-28T03:24:12;10.20;99.90
10046;DHT22;5063;50.878;4.742;2023-12-28T03:26:39;10.10;99.90
10046;DHT22;5063;50.878;4.742;2023-12-28T03:29:08;10.20;99.90
10046;DHT22;5063;50.878;4.742;2023-12-28T03:31:38;10.30;99.90
10046;DHT22;5063;50.878;4.742;2023-12-28T03:34:03;10.30;99.90
10046;DHT22;5063;50.878;4.742;2023-12-28T03:36:29;10.30;99.90
10046;DHT22;5063;50.878;4.742;2023-12-28T03:38:55;10.30;99.90
10046;DHT22;5063;50.878;4.742;2023-12-28T03:41:21;10.30;99.90
10046;DHT22;5063;50.878;4.742;2023-12-28T03:43:47;10.40;99.90
10046;DHT22;5063;50.878;4.742;2023-12-28T03:46:13;10.30;99.90
10046;DHT22;5063;50.878;4.742;2023-12-28T03:48:40;10.40;99.90
10046;DHT22;5063;50.878;4.742;2023-12-28T03:51:06;10.40;99.90
10046;DHT22;5063;50.878;4.742;2023-12-28T03:53:32;10.50;99.90
10046;DHT22;5063;50.878;4.742;2023-12-28T03:56:01;10.50;99.90
10046;DHT22;5063;50.878;4.742;2023-12-28T03:58:26;10.50;99.90
10046;DHT22;5063;50.878;4.742;2023-12-28T04:00:52;10.60;99.90
10046;DHT22;5063;50.878;4.742;2023-12-28T04:03:18;10.60;99.90
10046;DHT22;5063;50.878;4.742;2023-12-28T04:05:44;10.60;99.90
10046;DHT22;5063;50.878;4.742;2023-12-28T04:08:09;10.50;99.90
10046;DHT22;5063;50.878;4.742;2023-12-28T04:10:35;10.50;99.90
10046;DHT22;5063;50.878;4.742;2023-12-28T04:13:03;10.40;99.90
10046;DHT22;5063;50.878;4.742;2023-12-28T04:15:30;10.40;99.90
10046;DHT22;5063;50.878;4.742;2023-12-28T04:17:56;10.40;99.90
10046;DHT22;5063;50.878;4.742;2023-12-28T04:20:22;10.40;99.90
10046;DHT22;5063;50.878;4.742;2023-12-28T04:22:47;10.50;99.90
10046;DHT22;5063;50.878;4.742;2023-12-28T04:25:13;10.60;99.90
10046;DHT22;5063;50.878;4.742;2023-12-28T04:27:39;10.60;99.90
10046;DHT22;5063;50.878;4.742;2023-12-28T04:30:05;10.60;99.90
10046;DHT22;5063;50.878;4.742;2023-12-28T04:32:34;10.80;99.90
10046;DHT22;5063;50.878;4.742;2023-12-28T04:35:00;10.70;99.90
10046;DHT22;5063;50.878;4.742;2023-12-28T04:37:26;10.60;99.90
10046;DHT22;5063;50.878;4.742;2023-12-28T04:39:52;10.60;99.90
10046;DHT22;5063;50.878;4.742;2023-12-28T04:42:19;10.60;99.90
10046;DHT22;5063;50.878;4.742;2023-12-28T04:44:44;10.60;99.90
10046;DHT22;5063;50.878;4.742;2023-12-28T04:47:10;10.60;99.90
10046;DHT22;5063;50.878;4.742;2023-12-28T04:49:36;10.60;99.90
10046;DHT22;5063;50.878;4.742;2023-12-28T04:52:01;10.60;99.90
10046;DHT22;5063;50.878;4.742;2023-12-28T04:54:27;10.60;99.90
10046;DHT22;5063;50.878;4.742;2023-12-28T04:56:53;10.60;99.90
10046;DHT22;5063;50.878;4.742;2023-12-28T04:59:19;10.70;99.90
10046;DHT22;5063;50.878;4.742;2023-12-28T05:01:45;10.60;99.90
10046;DHT22;5063;50.878;4.742;2023-12-28T05:04:11;10.60;99.90
10046;DHT22;5063;50.878;4.742;2023-12-28T05:06:37;10.60;99.90
10046;DHT22;5063;50.878;4.742;2023-12-28T05:09:03;10.50;99.90
10046;DHT22;5063;50.878;4.742;2023-12-28T05:11:29;10.40;99.90
10046;DHT22;5063;50.878;4.742;2023-12-28T05:13:55;10.40;99.90
10046;DHT22;5063;50.878;4.742;2023-12-28T05:16:21;10.30;99.90
10046;DHT22;5063;50.878;4.742;2023-12-28T05:18:47;10.30;99.90
10046;DHT22;5063;50.878;4.742;2023-12-28T05:21:13;10.20;99.90
10046;DHT22;5063;50.878;4.742;2023-12-28T05:23:39;10.20;99.90
10046;DHT22;5063;50.878;4.742;2023-12-28T05:26:05;10.10;99.90
10046;DHT22;5063;50.878;4.742;2023-12-28T05:28:32;10.10;99.90
10046;DHT22;5063;50.878;4.742;2023-12-28T05:30:58;10.20;99.90
10046;DHT22;5063;50.878;4.742;2023-12-28T05:33:26;10.20;99.90
10046;DHT22;5063;50.878;4.742;2023-12-28T05:35:52;10.30;99.90
10046;DHT22;5063;50.878;4.742;2023-12-28T05:38:18;10.10;99.90
10046;DHT22;5063;50.878;4.742;2023-12-28T05:40:44;10.00;99.90
10046;DHT22;5063;50.878;4.742;2023-12-28T05:43:12;10.00;99.90
10046;DHT22;5063;50.878;4.742;2023-12-28T05:45:38;10.00;99.90
10046;DHT22;5063;50.878;4.742;2023-12-28T05:48:04;10.10;99.90
10046;DHT22;5063;50.878;4.742;2023-12-28T05:50:30;10.10;99.90
10046;DHT22;5063;50.878;4.742;2023-12-28T05:52:56;10.20;99.90
10046;DHT22;5063;50.878;4.742;2023-12-28T05:55:22;10.40;99.90
10046;DHT22;5063;50.878;4.742;2023-12-28T05:57:48;10.40;99.90
10046;DHT22;5063;50.878;4.742;2023-12-28T06:00:14;10.40;99.90
10046;DHT22;5063;50.878;4.742;2023-12-28T06:02:40;10.30;99.90
10046;DHT22;5063;50.878;4.742;2023-12-28T06:05:07;10.30;99.90
10046;DHT22;5063;50.878;4.742;2023-12-28T06:07:33;10.30;99.90
10046;DHT22;5063;50.878;4.742;2023-12-28T06:09:59;10.30;99.90
10046;DHT22;5063;50.878;4.742;2023-12-28T06:12:24;10.30;99.90
10046;DHT22;5063;50.878;4.742;2023-12-28T06:14:50;10.30;99.90
10046;DHT22;5063;50.878;4.742;2023-12-28T06:17:16;10.30;99.90
10046;DHT22;5063;50.878;4.742;2023-12-28T06:19:44;10.30;99.90
10046;DHT22;5063;50.878;4.742;2023-12-28T06:22:09;10.30;99.90
10046;DHT22;5063;50.878;4.742;2023-12-28T06:24:38;10.30;99.90
10046;DHT22;5063;50.878;4.742;2023-12-28T06:27:05;10.40;99.90
10046;DHT22;5063;50.878;4.742;2023-12-28T06:29:30;10.30;99.90
10046;DHT22;5063;50.878;4.742;2023-12-28T06:31:56;10.30;99.90
10046;DHT22;5063;50.878;4.742;2023-12-28T06:34:22;10.20;99.90
10046;DHT22;5063;50.878;4.742;2023-12-28T06:36:47;10.20;99.90
10046;DHT22;5063;50.878;4.742;2023-12-28T06:39:13;10.10;99.90
10046;DHT22;5063;50.878;4.742;2023-12-28T06:41:39;10.10;99.90
10046;DHT22;5063;50.878;4.742;2023-12-28T06:44:04;10.10;99.90
10046;DHT22;5063;50.878;4.742;2023-12-28T06:46:30;10.10;99.90
10046;DHT22;5063;50.878;4.742;2023-12-28T06:48:56;10.20;99.90
10046;DHT22;5063;50.878;4.742;2023-12-28T06:51:24;10.20;99.90
10046;DHT22;5063;50.878;4.742;2023-12-28T06:53:50;10.20;99.90
10046;DHT22;5063;50.878;4.742;2023-12-28T06:56:16;10.20;99.90
10046;DHT22;5063;50.878;4.742;2023-12-28T06:58:42;10.10;99.90
10046;DHT22;5063;50.878;4.742;2023-12-28T07:01:08;10.10;99.90
10046;DHT22;5063;50.878;4.742;2023-12-28T07:03:34;10.00;99.90
10046;DHT22;5063;50.878;4.742;2023-12-28T07:06:00;10.00;99.90
10046;DHT22;5063;50.878;4.742;2023-12-28T07:08:26;9.90;99.90
10046;DHT22;5063;50.878;4.742;2023-12-28T07:10:52;9.90;99.90
10046;DHT22;5063;50.878;4.742;2023-12-28T07:13:18;9.80;99.90
10046;DHT22;5063;50.878;4.742;2023-12-28T07:15:44;9.90;99.90
10046;DHT22;5063;50.878;4.742;2023-12-28T07:18:09;10.00;99.90
10046;DHT22;5063;50.878;4.742;2023-12-28T07:20:35;9.90;99.90
10046;DHT22;5063;50.878;4.742;2023-12-28T07:23:01;9.90;99.90
10046;DHT22;5063;50.878;4.742;2023-12-28T07:25:27;9.90;99.90
10046;DHT22;5063;50.878;4.742;2023-12-28T07:27:52;9.90;99.90
10046;DHT22;5063;50.878;4.742;2023-12-28T07:30:18;9.90;99.90
10046;DHT22;5063;50.878;4.742;2023-12-28T07:32:44;10.00;99.90
10046;DHT22;5063;50.878;4.742;2023-12-28T07:35:11;9.90;99.90
10046;DHT22;5063;50.878;4.742;2023-12-28T07:37:37;9.90;99.90
10046;DHT22;5063;50.878;4.742;2023-12-28T07:40:03;9.90;99.90
10046;DHT22;5063;50.878;4.742;2023-12-28T07:42:30;9.80;99.90
10046;DHT22;5063;50.878;4.742;2023-12-28T07:44:55;9.70;99.90
10046;DHT22;5063;50.878;4.742;2023-12-28T07:47:21;9.60;99.90
10046;DHT22;5063;50.878;4.742;2023-12-28T07:49:47;9.60;99.90
10046;DHT22;5063;50.878;4.742;2023-12-28T07:52:13;9.30;99.90
10046;DHT22;5063;50.878;4.742;2023-12-28T07:54:38;9.60;99.90
10046;DHT22;5063;50.878;4.742;2023-12-28T07:57:04;9.60;99.90
10046;DHT22;5063;50.878;4.742;2023-12-28T07:59:30;9.60;99.90
10046;DHT22;5063;50.878;4.742;2023-12-28T08:01:56;9.50;99.90
10046;DHT22;5063;50.878;4.742;2023-12-28T08:04:22;9.50;99.90
10046;DHT22;5063;50.878;4.742;2023-12-28T08:06:48;9.50;99.90
10046;DHT22;5063;50.878;4.742;2023-12-28T08:09:14;9.50;99.90
10046;DHT22;5063;50.878;4.742;2023-12-28T08:11:40;9.60;99.90
10046;DHT22;5063;50.878;4.742;2023-12-28T08:14:06;9.60;99.90
10046;DHT22;5063;50.878;4.742;2023-12-28T08:16:31;9.50;99.90
10046;DHT22;5063;50.878;4.742;2023-12-28T08:18:57;9.50;99.90
10046;DHT22;5063;50.878;4.742;2023-12-28T08:21:23;9.50;99.90
10046;DHT22;5063;50.878;4.742;2023-12-28T08:23:49;9.60;99.90
10046;DHT22;5063;50.878;4.742;2023-12-28T08:26:15;9.60;99.90
10046;DHT22;5063;50.878;4.742;2023-12-28T08:28:41;9.60;99.90
10046;DHT22;5063;50.878;4.742;2023-12-28T08:31:06;9.70;99.90
10046;DHT22;5063;50.878;4.742;2023-12-28T08:33:34;9.70;99.90
10046;DHT22;5063;50.878;4.742;2023-12-28T08:36:03;9.80;99.90
10046;DHT22;5063;50.878;4.742;2023-12-28T08:38:29;10.10;99.90
10046;DHT22;5063;50.878;4.742;2023-12-28T08:40:55;10.00;99.90
10046;DHT22;5063;50.878;4.742;2023-12-28T08:43:20;10.20;99.90
10046;DHT22;5063;50.878;4.742;2023-12-28T08:45:46;10.30;99.90
10046;DHT22;5063;50.878;4.742;2023-12-28T08:48:12;10.60;99.90
10046;DHT22;5063;50.878;4.742;2023-12-28T08:50:38;10.60;99.90
10046;DHT22;5063;50.878;4.742;2023-12-28T08:53:03;10.70;99.90
10046;DHT22;5063;50.878;4.742;2023-12-28T08:55:29;10.80;99.90
10046;DHT22;5063;50.878;4.742;2023-12-28T08:57:55;10.80;99.90
10046;DHT22;5063;50.878;4.742;2023-12-28T09:00:20;10.80;99.90
10046;DHT22;5063;50.878;4.742;2023-12-28T09:02:46;10.80;99.90
10046;DHT22;5063;50.878;4.742;2023-12-28T09:05:12;10.90;99.90
10046;DHT22;5063;50.878;4.742;2023-12-28T09:07:38;11.00;99.90
10046;DHT22;5063;50.878;4.742;2023-12-28T09:10:10;11.00;99.90
10046;DHT22;5063;50.878;4.742;2023-12-28T09:12:36;11.10;99.90
10046;DHT22;5063;50.878;4.742;2023-12-28T09:15:04;11.10;99.90
10046;DHT22;5063;50.878;4.742;2023-12-28T09:17:30;11.10;99.90
10046;DHT22;5063;50.878;4.742;2023-12-28T09:19:56;11.10;99.90
10046;DHT22;5063;50.878;4.742;2023-12-28T09:22:24;11.10;99.90
10046;DHT22;5063;50.878;4.742;2023-12-28T09:24:49;11.10;99.90
10046;DHT22;5063;50.878;4.742;2023-12-28T09:27:15;11.20;99.90
10046;DHT22;5063;50.878;4.742;2023-12-28T09:29:41;11.30;99.90
10046;DHT22;5063;50.878;4.742;2023-12-28T09:32:06;11.10;99.90
10046;DHT22;5063;50.878;4.742;2023-12-28T09:34:32;11.00;99.90
10046;DHT22;5063;50.878;4.742;2023-12-28T09:36:58;10.90;99.90
10046;DHT22;5063;50.878;4.742;2023-12-28T09:39:24;11.10;99.90
10046;DHT22;5063;50.878;4.742;2023-12-28T09:41:57;10.90;99.90
10046;DHT22;5063;50.878;4.742;2023-12-28T09:44:25;10.90;99.90
10046;DHT22;5063;50.878;4.742;2023-12-28T09:46:51;11.00;99.90
10046;DHT22;5063;50.878;4.742;2023-12-28T09:49:21;11.00;99.90
10046;DHT22;5063;50.878;4.742;2023-12-28T09:51:47;11.10;99.90
10046;DHT22;5063;50.878;4.742;2023-12-28T09:54:13;11.10;99.90
10046;DHT22;5063;50.878;4.742;2023-12-28T09:56:40;11.10;99.90
10046;DHT22;5063;50.878;4.742;2023-12-28T09:59:06;11.20;99.90
10046;DHT22;5063;50.878;4.742;2023-12-28T10:01:35;11.20;99.90
10046;DHT22;5063;50.878;4.742;2023-12-28T10:04:02;11.30;99.90
10046;DHT22;5063;50.878;4.742;2023-12-28T10:06:30;11.50;99.90
10046;DHT22;5063;50.878;4.742;2023-12-28T10:08:56;11.40;99.90
10046;DHT22;5063;50.878;4.742;2023-12-28T10:11:22;11.40;99.90
10046;DHT22;5063;50.878;4.742;2023-12-28T10:13:49;11.50;99.90
10046;DHT22;5063;50.878;4.742;2023-12-28T10:16:15;11.60;99.90
10046;DHT22;5063;50.878;4.742;2023-12-28T10:18:42;11.80;99.90
10046;DHT22;5063;50.878;4.742;2023-12-28T10:21:11;12.00;99.90
10046;DHT22;5063;50.878;4.742;2023-12-28T10:23:40;12.00;99.90
10046;DHT22;5063;50.878;4.742;2023-12-28T10:26:06;12.00;99.90
10046;DHT22;5063;50.878;4.742;2023-12-28T10:28:34;12.00;99.90
10046;DHT22;5063;50.878;4.742;2023-12-28T10:31:02;11.90;99.90
10046;DHT22;5063;50.878;4.742;2023-12-28T10:33:37;12.00;99.90
10046;DHT22;5063;50.878;4.742;2023-12-28T10:36:07;11.90;99.90
10046;DHT22;5063;50.878;4.742;2023-12-28T10:38:35;11.90;99.90
10046;DHT22;5063;50.878;4.742;2023-12-28T10:41:08;11.90;99.90
10046;DHT22;5063;50.878;4.742;2023-12-28T10:43:51;12.00;99.90
10046;DHT22;5063;50.878;4.742;2023-12-28T10:46:40;12.00;99.90
10046;DHT22;5063;50.878;4.742;2023-12-28T10:49:12;12.00;99.90
10046;DHT22;5063;50.878;4.742;2023-12-28T10:51:41;12.10;99.90
10046;DHT22;5063;50.878;4.742;2023-12-28T10:54:37;12.10;99.90
10046;DHT22;5063;50.878;4.742;2023-12-28T10:57:22;12.30;99.90
10046;DHT22;5063;50.878;4.742;2023-12-28T11:02:25;12.40;99.90
10046;DHT22;5063;50.878;4.742;2023-12-28T11:04:54;12.40;99.90
10046;DHT22;5063;50.878;4.742;2023-12-28T11:07:21;12.40;99.90
10046;DHT22;5063;50.878;4.742;2023-12-28T11:09:47;12.50;99.90
10046;DHT22;5063;50.878;4.742;2023-12-28T11:12:16;12.60;99.90
10046;DHT22;5063;50.878;4.742;2023-12-28T11:14:45;12.70;99.90
10046;DHT22;5063;50.878;4.742;2023-12-28T11:17:14;12.70;99.90
10046;DHT22;5063;50.878;4.742;2023-12-28T11:19:41;12.70;99.90
10046;DHT22;5063;50.878;4.742;2023-12-28T11:22:08;12.70;99.90
10046;DHT22;5063;50.878;4.742;2023-12-28T11:24:34;12.80;99.90
10046;DHT22;5063;50.878;4.742;2023-12-28T11:27:01;12.70;99.90
10046;DHT22;5063;50.878;4.742;2023-12-28T11:29:29;12.80;99.90
10046;DHT22;5063;50.878;4.742;2023-12-28T11:31:58;12.80;99.90
10046;DHT22;5063;50.878;4.742;2023-12-28T11:34:25;12.70;99.90
10046;DHT22;5063;50.878;4.742;2023-12-28T11:36:54;12.70;99.90
10046;DHT22;5063;50.878;4.742;2023-12-28T11:39:31;12.70;99.90
10046;DHT22;5063;50.878;4.742;2023-12-28T11:42:09;12.70;99.90
10046;DHT22;5063;50.878;4.742;2023-12-28T11:44:41;12.80;99.90
10046;DHT22;5063;50.878;4.742;2023-12-28T11:47:14;12.90;99.90
10046;DHT22;5063;50.878;4.742;2023-12-28T11:49:40;12.80;99.90
10046;DHT22;5063;50.878;4.742;2023-12-28T11:52:07;12.80;99.90
10046;DHT22;5063;50.878;4.742;2023-12-28T11:54:33;12.90;99.90
10046;DHT22;5063;50.878;4.742;2023-12-28T11:56:59;12.90;99.90
10046;DHT22;5063;50.878;4.742;2023-12-28T11:59:25;12.90;99.90
10046;DHT22;5063;50.878;4.742;2023-12-28T12:01:51;13.00;99.90
10046;DHT22;5063;50.878;4.742;2023-12-28T12:04:21;13.00;99.90
10046;DHT22;5063;50.878;4.742;2023-12-28T12:06:47;13.00;99.90
10046;DHT22;5063;50.878;4.742;2023-12-28T12:09:16;12.80;99.90
10046;DHT22;5063;50.878;4.742;2023-12-28T12:11:43;12.90;99.90
10046;DHT22;5063;50.878;4.742;2023-12-28T12:14:12;12.90;99.90
10046;DHT22;5063;50.878;4.742;2023-12-28T12:16:38;12.90;99.90
10046;DHT22;5063;50.878;4.742;2023-12-28T12:19:05;12.80;99.90
10046;DHT22;5063;50.878;4.742;2023-12-28T12:21:35;12.80;99.90
10046;DHT22;5063;50.878;4.742;2023-12-28T12:24:01;12.70;99.90
10046;DHT22;5063;50.878;4.742;2023-12-28T12:26:28;12.70;99.90
10046;DHT22;5063;50.878;4.742;2023-12-28T12:28:55;12.80;99.90
10046;DHT22;5063;50.878;4.742;2023-12-28T12:31:21;12.80;99.90
10046;DHT22;5063;50.878;4.742;2023-12-28T12:33:47;12.80;99.90
10046;DHT22;5063;50.878;4.742;2023-12-28T12:36:13;12.70;99.90
10046;DHT22;5063;50.878;4.742;2023-12-28T12:38:40;12.60;99.90
10046;DHT22;5063;50.878;4.742;2023-12-28T12:41:06;12.70;99.90
10046;DHT22;5063;50.878;4.742;2023-12-28T12:43:33;12.60;99.90
10046;DHT22;5063;50.878;4.742;2023-12-28T12:45:59;12.60;99.90
10046;DHT22;5063;50.878;4.742;2023-12-28T12:48:26;12.50;99.90
10046;DHT22;5063;50.878;4.742;2023-12-28T12:50:51;12.40;99.90
10046;DHT22;5063;50.878;4.742;2023-12-28T12:53:17;12.40;99.90
10046;DHT22;5063;50.878;4.742;2023-12-28T12:55:43;12.50;99.90
10046;DHT22;5063;50.878;4.742;2023-12-28T12:58:10;12.50;99.90
10046;DHT22;5063;50.878;4.742;2023-12-28T13:00:41;12.40;99.90
10046;DHT22;5063;50.878;4.742;2023-12-28T13:03:09;12.40;99.90
10046;DHT22;5063;50.878;4.742;2023-12-28T13:05:36;12.40;99.90
10046;DHT22;5063;50.878;4.742;2023-12-28T13:08:04;12.40;99.90
10046;DHT22;5063;50.878;4.742;2023-12-28T13:10:30;12.40;99.90
10046;DHT22;5063;50.878;4.742;2023-12-28T13:12:56;12.40;99.90
10046;DHT22;5063;50.878;4.742;2023-12-28T13:15:22;12.40;99.90
10046;DHT22;5063;50.878;4.742;2023-12-28T13:17:47;12.30;99.90
10046;DHT22;5063;50.878;4.742;2023-12-28T13:20:13;12.30;99.90
10046;DHT22;5063;50.878;4.742;2023-12-28T13:22:39;12.20;99.90
10046;DHT22;5063;50.878;4.742;2023-12-28T13:25:05;12.20;99.90
10046;DHT22;5063;50.878;4.742;2023-12-28T13:27:31;12.20;99.90
10046;DHT22;5063;50.878;4.742;2023-12-28T13:29:57;12.20;99.90
10046;DHT22;5063;50.878;4.742;2023-12-28T13:32:23;12.10;99.90
10046;DHT22;5063;50.878;4.742;2023-12-28T13:34:49;12.10;99.90
10046;DHT22;5063;50.878;4.742;2023-12-28T13:37:18;12.10;99.90
10046;DHT22;5063;50.878;4.742;2023-12-28T13:39:44;12.10;99.90
10046;DHT22;5063;50.878;4.742;2023-12-28T13:42:09;12.10;99.90
10046;DHT22;5063;50.878;4.742;2023-12-28T13:44:35;12.10;99.90
10046;DHT22;5063;50.878;4.742;2023-12-28T13:47:02;12.00;99.90
10046;DHT22;5063;50.878;4.742;2023-12-28T13:49:28;12.10;99.90
10046;DHT22;5063;50.878;4.742;2023-12-28T13:51:55;12.00;99.90
10046;DHT22;5063;50.878;4.742;2023-12-28T13:54:20;12.00;99.90
10046;DHT22;5063;50.878;4.742;2023-12-28T13:56:46;12.00;99.90
10046;DHT22;5063;50.878;4.742;2023-12-28T13:59:13;12.00;99.90
10046;DHT22;5063;50.878;4.742;2023-12-28T14:01:40;12.00;99.90
10046;DHT22;5063;50.878;4.742;2023-12-28T14:04:06;12.00;99.90
10046;DHT22;5063;50.878;4.742;2023-12-28T14:06:32;11.90;99.90
10046;DHT22;5063;50.878;4.742;2023-12-28T14:08:58;11.90;99.90
10046;DHT22;5063;50.878;4.742;2023-12-28T14:11:24;11.90;99.90
10046;DHT22;5063;50.878;4.742;2023-12-28T14:13:50;11.90;99.90
10046;DHT22;5063;50.878;4.742;2023-12-28T14:16:16;11.90;99.90
10046;DHT22;5063;50.878;4.742;2023-12-28T14:18:42;11.90;99.90
10046;DHT22;5063;50.878;4.742;2023-12-28T14:21:11;11.90;99.90
10046;DHT22;5063;50.878;4.742;2023-12-28T14:23:39;11.90;99.90
10046;DHT22;5063;50.878;4.742;2023-12-28T14:26:23;11.90;99.90
10046;DHT22;5063;50.878;4.742;2023-12-28T14:28:50;11.90;99.90
10046;DHT22;5063;50.878;4.742;2023-12-28T14:31:16;11.90;99.90
10046;DHT22;5063;50.878;4.742;2023-12-28T14:33:42;11.90;99.90
10046;DHT22;5063;50.878;4.742;2023-12-28T14:36:32;11.80;99.90
10046;DHT22;5063;50.878;4.742;2023-12-28T14:39:04;11.80;99.90
10046;DHT22;5063;50.878;4.742;2023-12-28T14:41:31;11.70;99.90
10046;DHT22;5063;50.878;4.742;2023-12-28T14:43:57;11.70;99.90
10046;DHT22;5063;50.878;4.742;2023-12-28T14:46:26;11.70;99.90
10046;DHT22;5063;50.878;4.742;2023-12-28T14:48:53;11.60;99.90
10046;DHT22;5063;50.878;4.742;2023-12-28T14:51:19;11.60;99.90
10046;DHT22;5063;50.878;4.742;2023-12-28T14:53:45;11.60;99.90
10046;DHT22;5063;50.878;4.742;2023-12-28T14:56:11;11.50;99.90
10046;DHT22;5063;50.878;4.742;2023-12-28T14:58:41;11.50;99.90
10046;DHT22;5063;50.878;4.742;2023-12-28T15:01:13;11.50;99.90
10046;DHT22;5063;50.878;4.742;2023-12-28T15:03:39;11.40;99.90
10046;DHT22;5063;50.878;4.742;2023-12-28T15:06:05;11.40;99.90
10046;DHT22;5063;50.878;4.742;2023-12-28T15:08:31;11.40;99.90
10046;DHT22;5063;50.878;4.742;2023-12-28T15:10:57;11.40;99.90
10046;DHT22;5063;50.878;4.742;2023-12-28T15:13:23;11.30;99.90
10046;DHT22;5063;50.878;4.742;2023-12-28T15:15:50;11.30;99.90
10046;DHT22;5063;50.878;4.742;2023-12-28T15:18:17;11.30;99.90
10046;DHT22;5063;50.878;4.742;2023-12-28T15:20:46;11.30;99.90
10046;DHT22;5063;50.878;4.742;2023-12-28T15:23:16;11.30;99.90
10046;DHT22;5063;50.878;4.742;2023-12-28T15:25:44;11.30;99.90
10046;DHT22;5063;50.878;4.742;2023-12-28T15:28:10;11.20;99.90
10046;DHT22;5063;50.878;4.742;2023-12-28T15:30:36;11.20;99.90
10046;DHT22;5063;50.878;4.742;2023-12-28T15:33:02;11.20;99.90
10046;DHT22;5063;50.878;4.742;2023-12-28T15:35:28;11.20;99.90
10046;DHT22;5063;50.878;4.742;2023-12-28T15:37:54;11.10;99.90
10046;DHT22;5063;50.878;4.742;2023-12-28T15:40:23;11.10;99.90
10046;DHT22;5063;50.878;4.742;2023-12-28T15:42:53;11.10;99.90
10046;DHT22;5063;50.878;4.742;2023-12-28T15:45:18;11.00;99.90
10046;DHT22;5063;50.878;4.742;2023-12-28T15:47:44;11.00;99.90
10046;DHT22;5063;50.878;4.742;2023-12-28T15:50:10;10.90;99.90
10046;DHT22;5063;50.878;4.742;2023-12-28T15:52:36;10.90;99.90